Time;durP1;ratioP1;P1;durP2;ratioP2;P2;SDS_P1;SDS_P2;PMS_P1;PMS_P2;Temp;Humidity;BMP_temperature;BMP_pressure;BME280_temperature;BME280_humidity;BME280_pressure;Samples;Min_cycle;Max_cycle;Signal;HPM_P1;HPM_P2
2022/03/05 00:01:30;;;;;;;37.00;21.85;;;1.90;99.90;;;;;;2585197;54;21067;31
2022/03/05 00:04:05;;;;;;;41.45;22.30;;;2.00;99.90;;;;;;2585401;54;20796;31
2022/03/05 00:06:39;;;;;;;37.17;22.02;;;2.00;99.90;;;;;;2603853;46;20794;31
2022/03/05 00:09:12;;;;;;;36.42;20.70;;;2.00;99.90;;;;;;2585466;54;20988;31
2022/03/05 00:11:45;;;;;;;35.43;21.03;;;1.90;99.90;;;;;;2585480;54;20890;31
2022/03/05 00:14:20;;;;;;;37.57;21.90;;;2.00;99.90;;;;;;2585202;54;20889;31
2022/03/05 00:16:56;;;;;;;36.57;21.33;;;2.00;99.90;;;;;;2585471;54;20930;31
2022/03/05 00:19:29;;;;;;;32.80;20.20;;;1.90;99.90;;;;;;2585443;54;20996;31
2022/03/05 00:22:02;;;;;;;40.50;23.00;;;1.90;99.90;;;;;;2683737;39;21074;31
2022/03/05 00:24:37;;;;;;;35.95;21.45;;;2.00;99.90;;;;;;2603888;46;20034;31
2022/03/05 00:27:11;;;;;;;33.13;21.42;;;2.00;99.90;;;;;;2603815;46;20971;31
2022/03/05 00:29:46;;;;;;;33.63;22.13;;;2.00;99.90;;;;;;2585182;54;20938;31
2022/03/05 00:32:22;;;;;;;41.03;24.43;;;2.00;99.90;;;;;;2585431;54;21004;31
2022/03/05 00:34:57;;;;;;;;;;;2.00;99.90;;;;;;2585542;54;20978;31
2022/03/05 00:37:31;;;;;;;38.37;21.53;;;2.00;99.90;;;;;;2589674;46;20810;31
2022/03/05 00:40:05;;;;;;;35.77;22.07;;;2.00;99.90;;;;;;2585169;54;20032;31
2022/03/05 00:42:40;;;;;;;38.05;20.95;;;1.90;99.90;;;;;;2604498;46;20911;31
2022/03/05 00:45:15;;;;;;;34.27;21.17;;;2.00;99.90;;;;;;2585285;54;20988;31
2022/03/05 00:47:52;;;;;;;30.75;19.33;;;2.00;99.90;;;;;;2585575;54;21896;31
2022/03/05 00:50:25;;;;;;;36.17;21.98;;;2.00;99.90;;;;;;2683428;39;21073;31
2022/03/05 00:53:00;;;;;;;35.47;22.38;;;2.00;99.90;;;;;;2585501;54;20925;31
2022/03/05 00:55:37;;;;;;;36.75;20.00;;;2.00;99.90;;;;;;2585291;54;20058;31
2022/03/05 00:58:10;;;;;;;33.95;21.17;;;2.00;99.90;;;;;;2585393;54;20037;31
2022/03/05 01:00:46;;;;;;;36.17;21.83;;;2.00;99.90;;;;;;2585438;54;20977;31
2022/03/05 01:03:23;;;;;;;39.75;23.25;;;2.00;99.90;;;;;;2683419;39;21153;31
2022/03/05 01:05:57;;;;;;;43.60;24.00;;;2.00;99.90;;;;;;2585202;54;20052;31
2022/03/05 01:08:29;;;;;;;40.30;24.23;;;1.90;99.90;;;;;;2585450;54;20096;31
2022/03/05 01:11:04;;;;;;;38.35;23.50;;;1.90;99.90;;;;;;2603951;46;20090;31
2022/03/05 01:13:39;;;;;;;43.63;23.90;;;1.80;99.90;;;;;;2603720;46;20153;31
2022/03/05 01:16:13;;;;;;;44.65;23.85;;;1.80;99.90;;;;;;2584507;54;21135;31
2022/03/05 01:18:50;;;;;;;40.85;23.20;;;1.80;99.90;;;;;;2585518;54;20030;31
2022/03/05 01:21:25;;;;;;;36.28;22.63;;;1.80;99.90;;;;;;2585508;54;20054;31
2022/03/05 01:24:00;;;;;;;45.47;25.43;;;1.70;99.90;;;;;;2584793;54;20164;31
2022/03/05 01:26:33;;;;;;;42.90;24.77;;;1.80;99.90;;;;;;2603522;46;20058;31
2022/03/05 01:29:08;;;;;;;40.63;25.07;;;1.80;99.90;;;;;;2585213;54;20030;31
2022/03/05 01:31:45;;;;;;;41.55;24.35;;;1.70;99.90;;;;;;2584367;54;21092;31
2022/03/05 01:34:23;;;;;;;49.60;25.90;;;1.60;99.90;;;;;;2585314;54;20945;31
2022/03/05 01:36:56;;;;;;;41.93;25.47;;;1.70;99.90;;;;;;2585456;54;20127;31
2022/03/05 01:39:28;;;;;;;45.75;27.45;;;1.70;99.90;;;;;;2585282;54;20855;31
2022/03/05 01:42:04;;;;;;;46.72;24.30;;;1.70;99.90;;;;;;2585392;54;20962;31
2022/03/05 01:44:37;;;;;;;49.90;26.20;;;1.70;99.90;;;;;;2585103;54;20940;31
2022/03/05 01:47:14;;;;;;;43.15;25.60;;;1.70;99.90;;;;;;2603592;46;21122;31
2022/03/05 01:49:53;;;;;;;43.00;27.40;;;1.70;99.90;;;;;;2585240;54;20049;31
2022/03/05 01:52:26;;;;;;;48.65;26.90;;;1.70;99.90;;;;;;2683651;39;22232;31
2022/03/05 01:55:00;;;;;;;45.60;29.30;;;1.70;99.90;;;;;;2603323;46;20027;31
2022/03/05 01:57:34;;;;;;;50.67;28.43;;;1.70;99.90;;;;;;2585168;54;20949;31
2022/03/05 02:00:10;;;;;;;44.13;28.37;;;1.70;99.90;;;;;;2585321;54;20036;31
2022/03/05 02:02:45;;;;;;;48.80;29.60;;;1.80;99.90;;;;;;2585260;54;21299;31
2022/03/05 02:05:23;;;;;;;48.37;29.43;;;1.80;99.90;;;;;;2584990;54;20026;31
2022/03/05 02:07:56;;;;;;;49.43;30.97;;;1.80;99.90;;;;;;2585386;54;20029;31
2022/03/05 02:10:36;;;;;;;52.97;29.38;;;1.70;99.90;;;;;;2585211;54;20022;31
2022/03/05 02:13:10;;;;;;;53.40;28.55;;;1.70;99.90;;;;;;2603588;46;20054;31
2022/03/05 02:15:45;;;;;;;48.67;28.43;;;1.70;99.90;;;;;;2585225;54;20058;31
2022/03/05 02:18:20;;;;;;;53.55;28.13;;;1.70;99.90;;;;;;2585074;54;20101;31
2022/03/05 02:20:58;;;;;;;52.78;27.88;;;1.60;99.90;;;;;;2584854;54;20023;31
2022/03/05 02:23:33;;;;;;;55.10;28.85;;;1.60;99.90;;;;;;2585209;54;20908;31
2022/03/05 02:26:07;;;;;;;52.03;26.93;;;1.60;99.90;;;;;;2701073;39;21518;31
2022/03/05 02:28:42;;;;;;;51.95;27.15;;;1.60;99.90;;;;;;2603402;47;20923;31
2022/03/05 02:31:16;;;;;;;50.00;28.85;;;1.60;99.90;;;;;;2585035;54;21005;31
2022/03/05 02:33:52;;;;;;;;;;;1.60;99.90;;;;;;2593179;47;20931;31
2022/03/05 02:36:36;;;;;;;43.17;24.83;;;1.60;99.90;;;;;;2603376;47;20786;31
2022/03/05 02:39:11;;;;;;;42.05;26.55;;;1.50;99.90;;;;;;2585029;54;20101;31
2022/03/05 02:41:44;;;;;;;45.55;27.50;;;1.60;99.90;;;;;;2584850;54;20092;31
2022/03/05 02:44:19;;;;;;;40.78;24.10;;;1.50;99.90;;;;;;2585033;54;20031;31
2022/03/05 02:46:56;;;;;;;46.30;25.35;;;1.50;99.90;;;;;;2585033;54;20042;31
2022/03/05 02:49:29;;;;;;;45.47;24.33;;;1.50;99.90;;;;;;2701897;39;21478;31
2022/03/05 02:52:07;;;;;;;38.85;24.25;;;1.40;99.90;;;;;;2604327;46;20797;31
2022/03/05 02:54:40;;;;;;;34.90;21.52;;;1.40;99.90;;;;;;2604443;46;20031;31
2022/03/05 02:57:13;;;;;;;37.30;22.65;;;1.40;99.90;;;;;;2702396;39;21077;31
2022/03/05 02:59:46;;;;;;;38.25;23.55;;;1.40;99.90;;;;;;2585743;54;20914;31
2022/03/05 03:02:24;;;;;;;41.35;21.65;;;1.40;99.90;;;;;;2585461;54;20925;31
2022/03/05 03:04:57;;;;;;;36.42;22.67;;;1.40;99.90;;;;;;2585873;54;20117;31
2022/03/05 03:07:35;;;;;;;34.55;22.70;;;1.40;99.90;;;;;;2604213;46;20054;31
2022/03/05 03:10:10;;;;;;;39.90;23.30;;;1.50;99.90;;;;;;2585830;54;21136;31
2022/03/05 03:12:43;;;;;;;37.50;22.80;;;1.40;99.90;;;;;;2585767;54;20101;31
2022/03/05 03:15:17;;;;;;;41.78;24.27;;;1.40;99.90;;;;;;2585819;54;22428;31
2022/03/05 03:17:53;;;;;;;46.63;25.40;;;1.40;99.90;;;;;;2585714;54;20038;31
2022/03/05 03:20:27;;;;;;;41.05;22.98;;;1.40;99.90;;;;;;2585493;54;20962;31
2022/03/05 03:23:03;;;;;;;34.97;20.98;;;1.40;99.90;;;;;;2585761;54;20080;31
2022/03/05 03:25:38;;;;;;;34.47;21.27;;;1.30;99.90;;;;;;2585661;54;20045;31
2022/03/05 03:28:11;;;;;;;35.87;21.67;;;1.30;99.90;;;;;;2585654;54;20116;31
2022/03/05 03:30:45;;;;;;;37.50;20.10;;;1.30;99.90;;;;;;2585723;54;20044;31
2022/03/05 03:33:18;;;;;;;32.90;18.70;;;1.30;99.90;;;;;;2604237;46;20031;31
2022/03/05 03:35:51;;;;;;;32.03;19.40;;;1.30;99.90;;;;;;2585823;54;20050;31
2022/03/05 03:38:29;;;;;;;31.20;19.00;;;1.30;99.90;;;;;;2585698;54;21275;31
2022/03/05 03:41:04;;;;;;;30.10;19.60;;;1.40;99.90;;;;;;2603839;46;20057;31
2022/03/05 03:43:37;;;;;;;38.22;20.20;;;1.30;99.90;;;;;;2603733;46;21017;31
2022/03/05 03:46:11;;;;;;;31.02;19.08;;;1.30;99.90;;;;;;2604436;46;20918;31
2022/03/05 03:48:46;;;;;;;35.08;19.67;;;1.30;99.90;;;;;;2585813;54;21327;31
2022/03/05 03:51:21;;;;;;;35.20;19.85;;;1.30;99.90;;;;;;2585591;54;20581;31
2022/03/05 03:53:59;;;;;;;29.65;18.25;;;1.30;99.90;;;;;;2585440;54;20168;31
2022/03/05 03:56:33;;;;;;;30.45;18.42;;;1.30;99.90;;;;;;2585613;54;20030;31
2022/03/05 03:59:07;;;;;;;34.30;20.15;;;1.30;99.90;;;;;;2603818;46;20097;31
2022/03/05 04:01:41;;;;;;;32.30;19.83;;;1.20;99.90;;;;;;2585661;54;20826;31
2022/03/05 04:04:16;;;;;;;29.58;15.40;;;1.30;99.90;;;;;;2585525;54;20909;31
2022/03/05 04:09:41;;;;;;;22.20;14.50;;;1.20;99.90;;;;;;2585747;54;20848;31
2022/03/05 04:12:17;;;;;;;31.10;18.73;;;1.30;99.90;;;;;;2585393;54;20046;31
2022/03/05 04:14:50;;;;;;;31.10;19.20;;;1.30;99.90;;;;;;2585445;54;20097;31
2022/03/05 04:17:23;;;;;;;24.80;14.85;;;1.20;99.90;;;;;;2585253;54;20652;31
2022/03/05 04:19:58;;;;;;;25.57;16.87;;;1.20;99.90;;;;;;2585751;54;20038;31
2022/03/05 04:22:33;;;;;;;27.33;18.10;;;1.10;99.90;;;;;;2604371;46;20026;31
2022/03/05 04:25:11;;;;;;;32.47;19.13;;;1.10;99.90;;;;;;2585690;54;20022;31
2022/03/05 04:27:44;;;;;;;30.70;19.50;;;1.10;99.90;;;;;;2593224;46;20944;31
2022/03/05 04:30:20;;;;;;;32.50;21.83;;;1.10;99.90;;;;;;2585408;54;20935;31
2022/03/05 04:32:54;;;;;;;36.20;21.85;;;1.00;99.90;;;;;;2585829;54;20034;31
2022/03/05 04:35:28;;;;;;;30.52;19.65;;;1.00;99.90;;;;;;2603964;46;20890;31
2022/03/05 04:38:03;;;;;;;31.77;19.08;;;1.00;99.90;;;;;;2604097;46;20149;31
2022/03/05 04:40:39;;;;;;;31.90;19.60;;;1.00;99.90;;;;;;2683650;39;21237;31
2022/03/05 04:43:14;;;;;;;29.70;17.90;;;1.00;99.90;;;;;;2585205;54;20030;31
2022/03/05 04:45:49;;;;;;;33.75;19.55;;;1.00;99.90;;;;;;2603724;46;20031;31
2022/03/05 04:48:23;;;;;;;32.55;20.70;;;1.00;99.90;;;;;;2683569;39;21089;31
2022/03/05 04:50:56;;;;;;;31.27;20.10;;;1.00;99.90;;;;;;2603659;46;20031;31
2022/03/05 04:53:33;;;;;;;33.77;22.70;;;0.90;99.90;;;;;;2584501;54;21106;31
2022/03/05 04:56:11;;;;;;;28.27;19.13;;;0.90;99.90;;;;;;2585484;54;20087;31
2022/03/05 04:58:45;;;;;;;32.43;20.00;;;0.90;99.90;;;;;;2585208;54;20023;31
2022/03/05 05:01:20;;;;;;;28.55;17.92;;;0.90;99.90;;;;;;2585725;54;20038;31
2022/03/05 05:03:55;;;;;;;35.20;19.30;;;0.90;99.90;;;;;;2584329;54;19943;31
2022/03/05 05:06:30;;;;;;;29.20;17.55;;;0.90;99.90;;;;;;2604357;46;20983;31
2022/03/05 05:09:04;;;;;;;29.75;18.35;;;0.90;99.90;;;;;;2584512;54;20026;31
2022/03/05 05:11:41;;;;;;;25.50;16.67;;;0.80;99.90;;;;;;2585200;54;20256;31
2022/03/05 05:14:18;;;;;;;23.10;16.00;;;0.80;99.90;;;;;;2683067;39;21885;31
2022/03/05 05:16:53;;;;;;;28.70;18.13;;;0.80;99.90;;;;;;2585169;54;20100;31
2022/03/05 05:19:27;;;;;;;28.83;18.57;;;0.80;99.90;;;;;;2585455;54;20023;31
2022/03/05 05:22:00;;;;;;;31.13;20.42;;;0.80;99.90;;;;;;2603222;46;21001;31
2022/03/05 05:24:36;;;;;;;42.17;23.65;;;0.80;99.90;;;;;;2585386;54;20628;31
2022/03/05 05:27:13;;;;;;;28.75;18.95;;;0.70;99.90;;;;;;2585432;54;20883;31
2022/03/05 05:29:49;;;;;;;32.80;20.50;;;0.70;99.90;;;;;;2585274;54;20927;31
2022/03/05 05:32:22;;;;;;;32.95;19.70;;;0.60;99.90;;;;;;2585289;54;20926;31
2022/03/05 05:34:55;;;;;;;28.05;18.88;;;0.60;99.90;;;;;;2585123;54;20023;31
2022/03/05 05:37:29;;;;;;;30.25;19.40;;;0.60;99.90;;;;;;2683522;39;21070;31
2022/03/05 05:40:04;;;;;;;27.30;16.60;;;0.60;99.90;;;;;;2603698;46;20023;31
2022/03/05 05:42:42;;;;;;;25.95;16.23;;;0.50;99.90;;;;;;2683602;39;22445;31
2022/03/05 05:45:16;;;;;;;28.13;15.63;;;0.50;99.90;;;;;;2585482;54;20960;31
2022/03/05 05:47:50;;;;;;;26.55;14.85;;;0.50;99.90;;;;;;2603499;46;20049;31
2022/03/05 05:50:23;;;;;;;25.15;15.40;;;0.40;99.90;;;;;;2584454;54;21178;31
2022/03/05 05:52:58;;;;;;;25.30;14.20;;;0.40;99.90;;;;;;2584404;54;20951;31
2022/03/05 05:55:34;;;;;;;25.80;14.60;;;0.40;99.90;;;;;;2584365;54;20967;31
2022/03/05 05:58:09;;;;;;;22.10;12.70;;;0.30;99.90;;;;;;2584477;54;20876;31
2022/03/05 06:00:42;;;;;;;25.13;14.50;;;0.30;99.90;;;;;;2603770;46;21016;31
2022/03/05 06:03:17;;;;;;;24.67;14.07;;;0.30;99.90;;;;;;2585156;54;20890;31
2022/03/05 06:05:52;;;;;;;22.45;13.20;;;0.40;99.90;;;;;;2683253;39;21629;31
2022/03/05 06:08:27;;;;;;;22.20;12.23;;;0.50;99.90;;;;;;2683376;39;21062;31
2022/03/05 06:11:00;;;;;;;23.10;12.45;;;0.80;99.90;;;;;;2585184;54;20818;31
2022/03/05 06:13:43;;;;;;;21.80;12.10;;;1.10;99.90;;;;;;2585223;54;20781;31
2022/03/05 06:16:20;;;;;;;22.65;13.48;;;1.20;99.90;;;;;;2585342;54;20027;31
2022/03/05 06:18:54;;;;;;;22.90;13.65;;;1.30;99.90;;;;;;2585156;54;20022;31
2022/03/05 06:21:27;;;;;;;26.00;15.10;;;1.30;99.90;;;;;;2603598;47;20896;31
2022/03/05 06:24:01;;;;;;;26.63;14.40;;;1.60;99.90;;;;;;2585736;54;20031;31
2022/03/05 06:26:35;;;;;;;23.70;13.45;;;2.00;99.90;;;;;;2585854;54;20062;31
2022/03/05 06:29:12;;;;;;;25.98;12.20;;;2.20;99.90;;;;;;2585675;54;20894;31
2022/03/05 06:31:47;;;;;;;20.77;11.93;;;2.60;99.90;;;;;;2585890;54;20905;31
2022/03/05 06:34:20;;;;;;;19.98;11.10;;;2.90;99.90;;;;;;2585516;54;20030;31
2022/03/05 06:36:53;;;;;;;19.73;12.00;;;3.40;99.90;;;;;;2585975;54;21068;31
2022/03/05 06:39:26;;;;;;;21.05;11.50;;;3.70;99.90;;;;;;2585800;54;20046;31
2022/03/05 06:42:01;;;;;;;19.30;12.15;;;3.90;99.90;;;;;;2586021;54;21002;31
2022/03/05 06:44:41;;;;;;;21.60;12.43;;;4.10;99.90;;;;;;2683416;39;21462;31
2022/03/05 06:47:14;;;;;;;20.77;12.93;;;4.40;99.90;;;;;;2585723;54;20976;31
2022/03/05 06:49:48;;;;;;;20.40;12.70;;;4.70;99.90;;;;;;2585724;54;20301;31
2022/03/05 06:52:21;;;;;;;21.00;13.10;;;5.10;99.90;;;;;;2585650;54;20968;31
2022/03/05 06:54:55;;;;;;;22.70;13.77;;;5.20;99.90;;;;;;2604137;46;20912;31
2022/03/05 06:57:29;;;;;;;26.30;15.80;;;5.20;99.90;;;;;;2585531;54;20033;31
2022/03/05 07:00:09;;;;;;;22.48;14.82;;;5.20;99.90;;;;;;2585363;54;20104;31
2022/03/05 07:02:42;;;;;;;21.05;13.43;;;5.50;99.90;;;;;;2585498;54;20092;31
2022/03/05 07:05:15;;;;;;;25.10;15.10;;;5.90;99.90;;;;;;2585527;54;20903;31
2022/03/05 07:07:50;;;;;;;23.10;14.05;;;5.90;99.90;;;;;;2585547;54;20027;31
2022/03/05 07:10:24;;;;;;;24.33;15.60;;;5.90;99.90;;;;;;2585676;54;20093;31
2022/03/05 07:13:00;;;;;;;26.83;17.08;;;5.80;99.90;;;;;;2604031;46;20959;31
2022/03/05 07:15:37;;;;;;;27.23;16.87;;;5.50;99.90;;;;;;2585795;54;20937;31
2022/03/05 07:18:12;;;;;;;27.85;16.67;;;5.60;99.90;;;;;;2585691;54;20271;31
2022/03/05 07:20:48;;;;;;;25.95;17.35;;;5.50;99.90;;;;;;2585611;54;21017;31
2022/03/05 07:23:23;;;;;;;26.33;18.17;;;5.40;99.90;;;;;;2585701;54;20069;31
2022/03/05 07:25:57;;;;;;;29.35;18.67;;;5.70;99.90;;;;;;2585468;54;20073;31
2022/03/05 07:28:35;;;;;;;28.75;19.35;;;6.10;99.90;;;;;;2585475;54;20791;31
2022/03/05 07:31:11;;;;;;;24.15;17.75;;;6.40;99.90;;;;;;2585653;54;20033;31
2022/03/05 07:33:46;;;;;;;29.77;20.02;;;6.20;99.90;;;;;;2585773;54;20034;31
2022/03/05 07:36:19;;;;;;;31.60;20.90;;;6.00;99.90;;;;;;2585598;54;20994;31
2022/03/05 07:38:54;;;;;;;32.73;21.40;;;5.70;99.90;;;;;;2585513;54;20033;31
2022/03/05 07:41:28;;;;;;;32.00;21.27;;;5.30;99.90;;;;;;2585345;54;20947;31
2022/03/05 07:44:04;;;;;;;27.65;19.67;;;4.90;99.90;;;;;;2683391;39;20627;31
2022/03/05 07:46:42;;;;;;;;;;;4.50;99.90;;;;;;2585802;54;20109;31
2022/03/05 07:49:20;;;;;;;28.63;19.70;;;4.00;99.90;;;;;;2585344;54;20005;31
2022/03/05 07:51:56;;;;;;;34.35;23.00;;;3.70;99.90;;;;;;2585652;54;21178;31
2022/03/05 07:54:29;;;;;;;28.10;20.05;;;3.50;99.90;;;;;;2585561;54;20112;31
2022/03/05 07:57:04;;;;;;;34.53;23.50;;;3.30;99.90;;;;;;2585360;54;20056;31
2022/03/05 07:59:37;;;;;;;34.53;22.70;;;3.00;99.90;;;;;;2585522;54;19935;31
2022/03/05 08:02:17;;;;;;;35.20;22.90;;;2.80;99.90;;;;;;2585724;54;20027;31
2022/03/05 08:04:54;;;;;;;35.00;21.55;;;2.70;99.90;;;;;;2585121;54;20908;31
2022/03/05 08:07:39;;;;;;;32.53;20.33;;;2.40;99.90;;;;;;2585664;54;20026;31
2022/03/05 08:10:18;;;;;;;31.08;17.17;;;2.20;99.90;;;;;;2585491;54;20792;31
2022/03/05 08:12:51;;;;;;;30.15;18.42;;;2.10;99.90;;;;;;2585358;54;21945;31
2022/03/05 08:15:29;;;;;;;29.93;20.37;;;2.20;99.90;;;;;;2585532;54;21426;31
2022/03/05 08:18:09;;;;;;;30.60;18.20;;;2.10;99.90;;;;;;2585421;54;21219;31
2022/03/05 08:20:42;;;;;;;29.85;19.38;;;2.00;99.90;;;;;;2585369;54;20030;31
2022/03/05 08:23:17;;;;;;;31.27;20.23;;;1.80;99.90;;;;;;2585355;54;20965;31
2022/03/05 08:25:50;;;;;;;28.70;19.45;;;1.60;99.90;;;;;;2585764;54;20034;31
2022/03/05 08:28:25;;;;;;;31.70;19.50;;;1.50;99.90;;;;;;2585436;54;20023;31
2022/03/05 08:31:01;;;;;;;26.25;17.73;;;1.40;99.90;;;;;;2585679;54;20030;31
2022/03/05 08:33:37;;;;;;;;;;;1.40;99.90;;;;;;2584936;54;20030;31
2022/03/05 08:36:10;;;;;;;26.83;17.87;;;1.30;99.90;;;;;;2585481;54;19960;31
2022/03/05 08:38:45;;;;;;;28.87;17.53;;;1.20;99.90;;;;;;2603827;46;21152;31
2022/03/05 08:41:19;;;;;;;29.20;19.00;;;1.20;99.90;;;;;;2585640;54;20933;31
2022/03/05 08:43:53;;;;;;;23.33;15.02;;;1.30;99.90;;;;;;2585411;54;20027;31
2022/03/05 08:46:27;;;;;;;29.10;19.25;;;1.30;99.90;;;;;;2683282;39;21176;31
2022/03/05 08:49:04;;;;;;;34.92;19.10;;;1.40;99.90;;;;;;2585313;54;20923;31
2022/03/05 08:51:38;;;;;;;30.15;19.10;;;1.30;99.90;;;;;;2585384;54;20974;31
2022/03/05 08:54:11;;;;;;;36.90;21.65;;;1.30;99.90;;;;;;2603687;46;20879;31
2022/03/05 08:56:45;;;;;;;35.83;21.90;;;1.30;99.90;;;;;;2585252;54;20914;31
2022/03/05 08:59:21;;;;;;;35.33;23.08;;;1.40;99.90;;;;;;2585309;54;20052;31
2022/03/05 09:01:54;;;;;;;33.60;22.87;;;1.40;99.90;;;;;;2585416;54;20086;31
2022/03/05 09:04:31;;;;;;;38.03;22.50;;;1.40;99.90;;;;;;2585642;54;20104;31
2022/03/05 09:07:07;;;;;;;37.67;21.60;;;1.30;99.90;;;;;;2585826;54;20026;31
2022/03/05 09:09:40;;;;;;;31.15;20.80;;;1.30;99.90;;;;;;2585584;54;20081;31
2022/03/05 09:12:16;;;;;;;39.50;22.35;;;1.30;99.90;;;;;;2585487;54;20921;31
2022/03/05 09:14:49;;;;;;;35.72;22.13;;;1.20;99.90;;;;;;2603588;46;20917;31
2022/03/05 09:17:24;;;;;;;46.45;27.05;;;1.20;99.90;;;;;;2585333;54;20052;31
2022/03/05 09:20:00;;;;;;;50.45;30.45;;;1.20;99.90;;;;;;2585312;54;20037;31
2022/03/05 09:22:35;;;;;;;48.83;30.55;;;1.20;99.90;;;;;;2584448;54;21038;31
2022/03/05 09:25:10;;;;;;;40.85;24.50;;;1.20;99.90;;;;;;2585358;54;20949;31
2022/03/05 09:27:43;;;;;;;40.43;25.37;;;1.30;99.90;;;;;;2701933;39;22320;31
2022/03/05 09:30:17;;;;;;;32.83;20.87;;;1.20;99.90;;;;;;2585345;54;20037;31
2022/03/05 09:32:50;;;;;;;35.80;23.02;;;1.30;99.90;;;;;;2585203;54;21218;31
2022/03/05 09:35:26;;;;;;;35.30;23.45;;;1.30;99.90;;;;;;2585632;54;21159;31
2022/03/05 09:38:01;;;;;;;29.35;18.27;;;1.30;99.90;;;;;;2585382;54;20022;31
2022/03/05 09:40:36;;;;;;;29.33;19.27;;;1.30;99.90;;;;;;2585352;54;20832;31
2022/03/05 09:43:11;;;;;;;29.20;20.10;;;1.20;99.90;;;;;;2590809;46;20804;31
2022/03/05 09:45:47;;;;;;;31.55;20.10;;;1.30;99.90;;;;;;2585472;54;20030;31
2022/03/05 09:48:23;;;;;;;30.50;19.10;;;1.20;99.90;;;;;;2585333;54;21026;31
2022/03/05 09:51:01;;;;;;;31.70;17.90;;;1.30;99.90;;;;;;2585510;54;20030;31
2022/03/05 09:53:35;;;;;;;35.65;22.67;;;1.30;99.90;;;;;;2585164;54;20783;31
2022/03/05 09:56:09;;;;;;;31.05;20.15;;;1.40;99.90;;;;;;2603974;46;21127;31
2022/03/05 09:58:57;;;;;;;31.65;20.10;;;1.40;99.90;;;;;;2585341;54;20783;31
2022/03/05 10:01:30;;;;;;;29.30;19.17;;;1.50;99.90;;;;;;2585222;54;20030;31
2022/03/05 10:04:05;;;;;;;32.70;19.85;;;1.50;99.90;;;;;;2585149;54;21230;31
2022/03/05 10:06:41;;;;;;;36.10;22.40;;;1.50;99.90;;;;;;2683194;39;21051;31
2022/03/05 10:09:25;;;;;;;38.53;22.83;;;1.50;99.90;;;;;;2585267;54;21081;31
2022/03/05 10:11:59;;;;;;;29.65;20.58;;;1.50;99.90;;;;;;2585320;54;22528;31
2022/03/05 10:14:32;;;;;;;32.80;19.13;;;1.50;99.90;;;;;;2603693;46;20091;31
2022/03/05 10:17:07;;;;;;;36.42;20.48;;;1.60;99.90;;;;;;2584222;54;20913;31
2022/03/05 10:19:41;;;;;;;41.40;24.25;;;1.60;99.90;;;;;;2584135;54;20877;31
2022/03/05 10:22:19;;;;;;;41.05;24.00;;;1.60;99.90;;;;;;2585023;54;20026;31
2022/03/05 10:24:52;;;;;;;32.50;19.93;;;1.50;99.90;;;;;;2584870;54;20154;31
2022/03/05 10:27:25;;;;;;;34.75;21.10;;;1.60;99.90;;;;;;2585290;54;20030;31
2022/03/05 10:29:59;;;;;;;53.92;34.55;;;1.70;99.90;;;;;;2603462;47;21017;31
2022/03/05 10:32:32;;;;;;;29.83;20.45;;;1.60;99.90;;;;;;2584290;54;20793;31
2022/03/05 10:35:05;;;;;;;88.30;49.80;;;1.70;99.90;;;;;;2584167;54;21042;31
2022/03/05 10:37:43;;;;;;;73.93;41.57;;;1.80;99.90;;;;;;2585304;54;20030;31
2022/03/05 10:40:15;;;;;;;38.25;24.45;;;1.80;99.90;;;;;;2585051;54;20031;31
2022/03/05 10:42:50;;;;;;;34.90;23.05;;;1.90;99.90;;;;;;2603765;47;20932;31
2022/03/05 10:45:28;;;;;;;33.15;20.67;;;1.90;99.90;;;;;;2585045;54;20113;31
2022/03/05 10:48:02;;;;;;;36.70;22.80;;;2.00;99.90;;;;;;2584834;54;20034;31
2022/03/05 10:50:36;;;;;;;38.00;22.05;;;2.10;99.90;;;;;;2600352;47;21047;31
2022/03/05 10:53:13;;;;;;;39.83;22.33;;;2.10;99.90;;;;;;2583982;54;20034;31
2022/03/05 10:55:49;;;;;;;33.00;23.10;;;2.20;99.90;;;;;;2585154;54;20877;31
2022/03/05 10:58:25;;;;;;;32.95;21.63;;;2.40;99.90;;;;;;2585080;54;20034;31
2022/03/05 11:00:58;;;;;;;33.30;22.45;;;2.50;99.90;;;;;;2584806;54;20958;31
2022/03/05 11:03:31;;;;;;;41.55;24.75;;;2.50;99.90;;;;;;2584937;54;20026;31
2022/03/05 11:06:06;;;;;;;47.38;27.73;;;2.60;99.90;;;;;;2583952;54;20877;31
2022/03/05 11:08:42;;;;;;;41.00;24.10;;;2.60;99.90;;;;;;2585310;54;21277;31
2022/03/05 11:11:17;;;;;;;34.65;21.70;;;2.70;99.90;;;;;;2585586;54;21007;31
2022/03/05 11:13:51;;;;;;;41.40;25.42;;;2.90;99.90;;;;;;2585901;54;20960;31
2022/03/05 11:16:26;;;;;;;33.65;21.20;;;3.00;99.90;;;;;;2603757;46;20931;31
2022/03/05 11:19:01;;;;;;;39.50;25.33;;;3.10;99.90;;;;;;2585732;54;20030;31
2022/03/05 11:21:34;;;;;;;35.03;22.85;;;3.20;99.90;;;;;;2585120;54;20136;31
2022/03/05 11:24:13;;;;;;;39.05;22.75;;;3.20;99.90;;;;;;2585500;54;20112;31
2022/03/05 11:26:50;;;;;;;31.65;20.90;;;3.40;99.90;;;;;;2585845;54;20752;31
2022/03/05 11:29:56;;;;;;;39.67;22.77;;;3.50;99.90;;;;;;2585612;54;20906;31
2022/03/05 11:32:32;;;;;;;34.15;21.30;;;3.60;99.90;;;;;;2585832;54;20956;31
2022/03/05 11:35:04;;;;;;;29.35;18.25;;;3.60;99.90;;;;;;2604001;46;20034;31
2022/03/05 11:37:41;;;;;;;38.60;23.30;;;3.80;99.90;;;;;;2604083;46;20049;31
2022/03/05 11:40:33;;;;;;;38.10;23.13;;;4.10;99.90;;;;;;2585701;54;21337;31
2022/03/05 11:43:21;;;;;;;37.40;24.05;;;4.10;99.90;;;;;;2585138;54;20741;31
2022/03/05 11:45:59;;;;;;;37.92;24.80;;;4.10;99.90;;;;;;2585529;54;20954;31
2022/03/05 11:48:34;;;;;;;38.87;23.33;;;4.10;99.90;;;;;;2585732;54;20026;31
2022/03/05 11:54:29;;;;;;;103.18;45.00;;;4.20;99.90;;;;;;2646259;53;20936;31
2022/03/05 11:57:21;;;;;;;35.80;22.50;;;4.10;99.90;;;;;;2606918;54;20782;31
2022/03/05 12:00:03;;;;;;;39.90;23.83;;;4.10;99.90;;;;;;2606110;54;20018;31
2022/03/05 12:02:45;;;;;;;42.20;24.80;;;4.10;99.90;;;;;;2607300;54;20033;31
2022/03/05 12:05:49;;;;;;;53.15;28.73;;;4.20;99.90;;;;;;2607268;54;20940;31
2022/03/05 12:08:45;;;;;;;40.45;25.58;;;4.10;99.90;;;;;;2606864;54;20052;31
2022/03/05 12:11:24;;;;;;;43.85;24.15;;;4.10;99.90;;;;;;2607194;54;20026;31
2022/03/05 12:14:00;;;;;;;38.80;23.80;;;4.10;99.90;;;;;;2613251;46;20884;31
2022/03/05 12:16:37;;;;;;;37.10;20.97;;;4.00;99.90;;;;;;2607077;54;20250;31
2022/03/05 12:19:13;;;;;;;36.90;22.48;;;4.00;99.90;;;;;;2625219;46;20094;31
2022/03/05 12:21:54;;;;;;;30.13;19.57;;;3.90;99.90;;;;;;2625449;46;20107;31
2022/03/05 12:24:37;;;;;;;33.50;20.73;;;3.90;99.90;;;;;;2607201;54;21078;31
2022/03/05 12:27:16;;;;;;;32.45;21.27;;;3.90;99.90;;;;;;2606783;54;20249;31
2022/03/05 12:29:52;;;;;;;36.13;21.73;;;3.80;99.90;;;;;;2606788;54;20910;31
2022/03/05 12:32:31;;;;;;;25.73;16.65;;;3.80;99.90;;;;;;2606886;54;20189;31
2022/03/05 12:35:08;;;;;;;31.57;18.30;;;3.80;99.90;;;;;;2606941;54;20026;31
2022/03/05 12:37:44;;;;;;;25.90;17.63;;;3.80;99.90;;;;;;2606979;54;20875;31
2022/03/05 12:40:20;;;;;;;25.10;18.00;;;3.70;99.90;;;;;;2611095;46;20487;31
2022/03/05 12:42:58;;;;;;;71.78;22.98;;;3.90;99.90;;;;;;2625339;46;20998;31
2022/03/05 12:45:36;;;;;;;35.35;23.15;;;3.70;99.90;;;;;;2606834;54;20030;31
2022/03/05 12:48:12;;;;;;;31.38;19.88;;;3.70;99.90;;;;;;2606706;54;20883;31
2022/03/05 12:50:47;;;;;;;29.83;18.88;;;3.80;99.90;;;;;;2606823;54;20068;31
2022/03/05 12:53:23;;;;;;;27.85;17.73;;;3.80;99.90;;;;;;2606649;54;20769;31
2022/03/05 12:55:58;;;;;;;29.33;19.38;;;3.80;99.90;;;;;;2625255;46;20037;31
2022/03/05 12:58:36;;;;;;;25.77;16.10;;;3.90;99.90;;;;;;2606958;54;20037;31
2022/03/05 13:01:13;;;;;;;26.90;17.23;;;3.90;99.90;;;;;;2606817;54;20880;31
2022/03/05 13:03:50;;;;;;;25.30;17.77;;;4.00;99.90;;;;;;2606231;54;20026;31
2022/03/05 13:06:28;;;;;;;24.00;16.27;;;3.90;99.90;;;;;;2621831;46;20875;31
2022/03/05 13:09:03;;;;;;;23.25;14.05;;;3.80;99.90;;;;;;2613131;46;20018;31
2022/03/05 13:11:58;;;;;;;22.42;12.55;;;3.70;99.90;;;;;;2603145;54;20030;31
2022/03/05 13:14:36;;;;;;;24.30;13.00;;;3.60;99.90;;;;;;2603025;54;20034;31
2022/03/05 13:17:12;;;;;;;19.20;12.53;;;3.60;99.90;;;;;;2603217;54;20034;31
2022/03/05 13:19:59;;;;;;;;;;;3.60;99.90;;;;;;2603445;54;20239;31
2022/03/05 13:22:37;;;;;;;23.55;11.45;;;3.50;99.90;;;;;;2621774;46;20092;31
2022/03/05 13:25:17;;;;;;;20.60;11.77;;;3.50;99.90;;;;;;2603078;54;20996;31
2022/03/05 13:27:52;;;;;;;19.50;10.27;;;3.50;99.90;;;;;;2603097;54;20026;31
2022/03/05 13:30:31;;;;;;;20.40;11.38;;;3.40;99.90;;;;;;2603065;54;20845;31
2022/03/05 13:33:06;;;;;;;27.65;13.00;;;3.40;99.90;;;;;;2603041;54;20057;31
2022/03/05 13:35:45;;;;;;;21.00;12.20;;;3.40;99.90;;;;;;2621325;46;20085;31
2022/03/05 13:38:28;;;;;;;22.95;11.60;;;3.50;99.90;;;;;;2603149;54;20042;31